sensor_id;sensor_type;location;lat;lon;timestamp;temperature;humidity
2327;DHT22;1174;51.588;7.328;2022-07-29T00:01:50;20.60;95.30
2327;DHT22;1174;51.588;7.328;2022-07-29T00:04:18;20.60;95.20
2327;DHT22;1174;51.588;7.328;2022-07-29T00:06:46;20.60;95.20
2327;DHT22;1174;51.588;7.328;2022-07-29T00:09:14;20.70;95.20
2327;DHT22;1174;51.588;7.328;2022-07-29T00:11:41;20.60;95.30
2327;DHT22;1174;51.588;7.328;2022-07-29T00:14:08;20.50;95.50
2327;DHT22;1174;51.588;7.328;2022-07-29T00:16:35;20.50;95.70
2327;DHT22;1174;51.588;7.328;2022-07-29T00:19:03;20.50;95.80
2327;DHT22;1174;51.588;7.328;2022-07-29T00:21:30;20.40;95.50
2327;DHT22;1174;51.588;7.328;2022-07-29T00:23:57;20.40;95.80
2327;DHT22;1174;51.588;7.328;2022-07-29T00:26:25;20.30;96.10
2327;DHT22;1174;51.588;7.328;2022-07-29T00:28:57;20.30;96.20
2327;DHT22;1174;51.588;7.328;2022-07-29T00:31:24;20.40;96.60
2327;DHT22;1174;51.588;7.328;2022-07-29T00:33:51;20.40;96.30
2327;DHT22;1174;51.588;7.328;2022-07-29T00:36:18;20.40;96.30
2327;DHT22;1174;51.588;7.328;2022-07-29T00:38:44;20.40;96.40
2327;DHT22;1174;51.588;7.328;2022-07-29T00:41:11;20.50;96.30
2327;DHT22;1174;51.588;7.328;2022-07-29T00:43:39;20.40;97.00
2327;DHT22;1174;51.588;7.328;2022-07-29T00:46:06;20.40;97.20
2327;DHT22;1174;51.588;7.328;2022-07-29T00:48:33;20.40;97.30
2327;DHT22;1174;51.588;7.328;2022-07-29T00:51:02;20.40;97.30
2327;DHT22;1174;51.588;7.328;2022-07-29T00:53:30;20.50;97.20
2327;DHT22;1174;51.588;7.328;2022-07-29T00:55:57;20.50;97.50
2327;DHT22;1174;51.588;7.328;2022-07-29T00:58:25;20.40;97.30
2327;DHT22;1174;51.588;7.328;2022-07-29T01:00:54;20.30;97.60
2327;DHT22;1174;51.588;7.328;2022-07-29T01:03:21;20.30;97.70
2327;DHT22;1174;51.588;7.328;2022-07-29T01:05:47;20.00;98.10
2327;DHT22;1174;51.588;7.328;2022-07-29T01:08:15;20.10;98.90
2327;DHT22;1174;51.588;7.328;2022-07-29T01:10:43;20.00;98.60
2327;DHT22;1174;51.588;7.328;2022-07-29T01:13:11;20.10;98.60
2327;DHT22;1174;51.588;7.328;2022-07-29T01:15:43;20.00;98.70
2327;DHT22;1174;51.588;7.328;2022-07-29T01:18:16;20.00;99.20
2327;DHT22;1174;51.588;7.328;2022-07-29T01:21:02;19.90;99.50
2327;DHT22;1174;51.588;7.328;2022-07-29T01:24:07;19.90;99.70
2327;DHT22;1174;51.588;7.328;2022-07-29T01:26:47;19.80;99.70
2327;DHT22;1174;51.588;7.328;2022-07-29T01:29:23;19.80;99.90
2327;DHT22;1174;51.588;7.328;2022-07-29T01:31:55;19.70;99.90
2327;DHT22;1174;51.588;7.328;2022-07-29T01:34:27;19.80;99.90
2327;DHT22;1174;51.588;7.328;2022-07-29T01:37:03;19.70;99.90
2327;DHT22;1174;51.588;7.328;2022-07-29T01:39:33;19.80;99.90
2327;DHT22;1174;51.588;7.328;2022-07-29T01:42:08;19.80;99.90
2327;DHT22;1174;51.588;7.328;2022-07-29T01:44:45;19.80;99.90
2327;DHT22;1174;51.588;7.328;2022-07-29T01:47:17;19.80;99.90
2327;DHT22;1174;51.588;7.328;2022-07-29T01:49:49;19.70;99.90
2327;DHT22;1174;51.588;7.328;2022-07-29T01:52:21;19.60;99.90
2327;DHT22;1174;51.588;7.328;2022-07-29T01:54:53;19.70;99.90
2327;DHT22;1174;51.588;7.328;2022-07-29T01:57:25;19.80;99.90
2327;DHT22;1174;51.588;7.328;2022-07-29T01:59:55;19.80;99.90
2327;DHT22;1174;51.588;7.328;2022-07-29T02:02:23;19.60;99.90
2327;DHT22;1174;51.588;7.328;2022-07-29T02:04:52;19.50;99.90
2327;DHT22;1174;51.588;7.328;2022-07-29T02:07:22;19.40;99.90
2327;DHT22;1174;51.588;7.328;2022-07-29T02:09:50;19.40;99.90
2327;DHT22;1174;51.588;7.328;2022-07-29T02:12:19;19.20;99.90
2327;DHT22;1174;51.588;7.328;2022-07-29T02:14:49;19.20;99.90
2327;DHT22;1174;51.588;7.328;2022-07-29T02:17:21;19.10;99.90
2327;DHT22;1174;51.588;7.328;2022-07-29T02:19:50;19.20;99.90
2327;DHT22;1174;51.588;7.328;2022-07-29T02:22:18;19.20;99.90
2327;DHT22;1174;51.588;7.328;2022-07-29T02:24:46;19.20;99.90
2327;DHT22;1174;51.588;7.328;2022-07-29T02:27:14;19.20;99.90
2327;DHT22;1174;51.588;7.328;2022-07-29T02:29:41;19.10;99.90
2327;DHT22;1174;51.588;7.328;2022-07-29T02:32:10;19.20;99.90
2327;DHT22;1174;51.588;7.328;2022-07-29T02:34:40;19.30;99.90
2327;DHT22;1174;51.588;7.328;2022-07-29T02:37:09;19.30;99.90
2327;DHT22;1174;51.588;7.328;2022-07-29T02:39:37;19.30;99.90
2327;DHT22;1174;51.588;7.328;2022-07-29T02:42:07;19.10;99.90
2327;DHT22;1174;51.588;7.328;2022-07-29T02:44:34;19.20;99.90
2327;DHT22;1174;51.588;7.328;2022-07-29T02:47:07;19.20;99.90
2327;DHT22;1174;51.588;7.328;2022-07-29T02:49:40;19.10;99.90
2327;DHT22;1174;51.588;7.328;2022-07-29T02:52:14;19.00;99.90
2327;DHT22;1174;51.588;7.328;2022-07-29T02:54:47;18.90;99.90
2327;DHT22;1174;51.588;7.328;2022-07-29T02:57:21;18.80;99.90
2327;DHT22;1174;51.588;7.328;2022-07-29T02:59:51;18.80;99.90
2327;DHT22;1174;51.588;7.328;2022-07-29T03:02:20;18.80;99.90
2327;DHT22;1174;51.588;7.328;2022-07-29T03:04:51;18.80;99.90
2327;DHT22;1174;51.588;7.328;2022-07-29T03:07:19;18.60;99.90
2327;DHT22;1174;51.588;7.328;2022-07-29T03:09:47;18.50;99.90
2327;DHT22;1174;51.588;7.328;2022-07-29T03:12:14;18.60;99.90
2327;DHT22;1174;51.588;7.328;2022-07-29T03:14:42;18.60;99.90
2327;DHT22;1174;51.588;7.328;2022-07-29T03:17:10;18.80;99.90
2327;DHT22;1174;51.588;7.328;2022-07-29T03:19:38;18.80;99.90
2327;DHT22;1174;51.588;7.328;2022-07-29T03:22:07;18.80;99.90
2327;DHT22;1174;51.588;7.328;2022-07-29T03:24:35;18.80;99.90
2327;DHT22;1174;51.588;7.328;2022-07-29T03:27:03;18.70;99.90
2327;DHT22;1174;51.588;7.328;2022-07-29T03:29:31;18.80;99.90
2327;DHT22;1174;51.588;7.328;2022-07-29T03:32:01;18.80;99.90
2327;DHT22;1174;51.588;7.328;2022-07-29T03:34:28;19.00;99.90
2327;DHT22;1174;51.588;7.328;2022-07-29T03:36:55;18.90;99.90
2327;DHT22;1174;51.588;7.328;2022-07-29T03:39:26;18.80;99.90
2327;DHT22;1174;51.588;7.328;2022-07-29T03:41:56;18.70;99.90
2327;DHT22;1174;51.588;7.328;2022-07-29T03:44:25;18.70;99.90
2327;DHT22;1174;51.588;7.328;2022-07-29T03:46:54;18.50;99.90
2327;DHT22;1174;51.588;7.328;2022-07-29T03:49:23;18.40;99.90
2327;DHT22;1174;51.588;7.328;2022-07-29T03:51:51;18.40;99.90
2327;DHT22;1174;51.588;7.328;2022-07-29T03:54:19;18.50;99.90
2327;DHT22;1174;51.588;7.328;2022-07-29T03:56:48;18.50;99.90
2327;DHT22;1174;51.588;7.328;2022-07-29T03:59:18;18.60;99.90
2327;DHT22;1174;51.588;7.328;2022-07-29T04:01:46;18.60;99.90
2327;DHT22;1174;51.588;7.328;2022-07-29T04:04:13;18.60;99.90
2327;DHT22;1174;51.588;7.328;2022-07-29T04:06:42;18.50;99.90
2327;DHT22;1174;51.588;7.328;2022-07-29T04:09:09;18.40;99.90
2327;DHT22;1174;51.588;7.328;2022-07-29T04:11:37;18.30;99.90
2327;DHT22;1174;51.588;7.328;2022-07-29T04:14:06;18.30;99.90
2327;DHT22;1174;51.588;7.328;2022-07-29T04:16:32;18.30;99.90
2327;DHT22;1174;51.588;7.328;2022-07-29T04:18:59;18.30;99.90
2327;DHT22;1174;51.588;7.328;2022-07-29T04:21:26;18.50;99.90
2327;DHT22;1174;51.588;7.328;2022-07-29T04:23:53;18.40;99.90
2327;DHT22;1174;51.588;7.328;2022-07-29T04:26:20;18.50;99.90
2327;DHT22;1174;51.588;7.328;2022-07-29T04:28:47;18.50;99.90
2327;DHT22;1174;51.588;7.328;2022-07-29T04:31:15;18.60;99.90
2327;DHT22;1174;51.588;7.328;2022-07-29T04:33:42;18.70;99.90
2327;DHT22;1174;51.588;7.328;2022-07-29T04:36:09;18.70;99.90
2327;DHT22;1174;51.588;7.328;2022-07-29T04:38:37;18.70;99.90
2327;DHT22;1174;51.588;7.328;2022-07-29T04:41:04;18.70;99.90
2327;DHT22;1174;51.588;7.328;2022-07-29T04:43:32;18.70;99.90
2327;DHT22;1174;51.588;7.328;2022-07-29T04:45:59;18.80;99.90
2327;DHT22;1174;51.588;7.328;2022-07-29T04:48:27;18.80;99.90
2327;DHT22;1174;51.588;7.328;2022-07-29T04:50:54;18.80;99.90
2327;DHT22;1174;51.588;7.328;2022-07-29T04:53:21;18.80;99.90
2327;DHT22;1174;51.588;7.328;2022-07-29T04:55:48;18.80;99.90
2327;DHT22;1174;51.588;7.328;2022-07-29T04:58:15;18.60;99.90
2327;DHT22;1174;51.588;7.328;2022-07-29T05:00:42;18.50;99.90
2327;DHT22;1174;51.588;7.328;2022-07-29T05:03:09;18.60;99.90
2327;DHT22;1174;51.588;7.328;2022-07-29T05:05:37;18.60;99.90
2327;DHT22;1174;51.588;7.328;2022-07-29T05:08:05;18.60;99.90
2327;DHT22;1174;51.588;7.328;2022-07-29T05:10:31;18.80;99.90
2327;DHT22;1174;51.588;7.328;2022-07-29T05:13:01;18.70;99.90
2327;DHT22;1174;51.588;7.328;2022-07-29T05:15:27;18.70;99.90
2327;DHT22;1174;51.588;7.328;2022-07-29T05:17:54;18.40;99.90
2327;DHT22;1174;51.588;7.328;2022-07-29T05:20:21;18.00;99.90
2327;DHT22;1174;51.588;7.328;2022-07-29T05:22:53;17.80;99.90
2327;DHT22;1174;51.588;7.328;2022-07-29T05:25:20;17.90;99.90
2327;DHT22;1174;51.588;7.328;2022-07-29T05:27:47;17.70;99.90
2327;DHT22;1174;51.588;7.328;2022-07-29T05:30:13;17.40;99.90
2327;DHT22;1174;51.588;7.328;2022-07-29T05:32:40;17.20;99.90
2327;DHT22;1174;51.588;7.328;2022-07-29T05:35:08;17.10;99.90
2327;DHT22;1174;51.588;7.328;2022-07-29T05:37:35;17.10;99.90
2327;DHT22;1174;51.588;7.328;2022-07-29T05:40:04;17.20;99.90
2327;DHT22;1174;51.588;7.328;2022-07-29T05:42:31;17.20;99.90
2327;DHT22;1174;51.588;7.328;2022-07-29T05:44:58;17.30;99.90
2327;DHT22;1174;51.588;7.328;2022-07-29T05:47:25;17.30;99.90
2327;DHT22;1174;51.588;7.328;2022-07-29T05:49:52;17.10;99.90
2327;DHT22;1174;51.588;7.328;2022-07-29T05:52:20;17.00;99.90
2327;DHT22;1174;51.588;7.328;2022-07-29T05:54:48;16.90;99.90
2327;DHT22;1174;51.588;7.328;2022-07-29T05:57:17;17.10;99.90
2327;DHT22;1174;51.588;7.328;2022-07-29T05:59:44;17.40;99.90
2327;DHT22;1174;51.588;7.328;2022-07-29T06:02:11;17.40;99.90
2327;DHT22;1174;51.588;7.328;2022-07-29T06:04:38;17.40;99.90
2327;DHT22;1174;51.588;7.328;2022-07-29T06:07:05;17.40;99.90
2327;DHT22;1174;51.588;7.328;2022-07-29T06:09:32;17.50;99.90
2327;DHT22;1174;51.588;7.328;2022-07-29T06:12:00;17.80;99.90
2327;DHT22;1174;51.588;7.328;2022-07-29T06:14:28;18.30;99.90
2327;DHT22;1174;51.588;7.328;2022-07-29T06:16:55;18.30;99.90
2327;DHT22;1174;51.588;7.328;2022-07-29T06:19:22;18.30;99.90
2327;DHT22;1174;51.588;7.328;2022-07-29T06:21:49;18.10;99.90
2327;DHT22;1174;51.588;7.328;2022-07-29T06:24:16;18.00;99.90
2327;DHT22;1174;51.588;7.328;2022-07-29T06:26:43;18.00;99.90
2327;DHT22;1174;51.588;7.328;2022-07-29T06:29:10;17.90;99.90
2327;DHT22;1174;51.588;7.328;2022-07-29T06:31:39;18.00;99.90
2327;DHT22;1174;51.588;7.328;2022-07-29T06:34:06;18.20;99.90
2327;DHT22;1174;51.588;7.328;2022-07-29T06:36:35;18.30;99.90
2327;DHT22;1174;51.588;7.328;2022-07-29T06:39:04;18.30;99.90
2327;DHT22;1174;51.588;7.328;2022-07-29T06:41:31;18.60;99.90
2327;DHT22;1174;51.588;7.328;2022-07-29T06:43:58;18.80;99.90
2327;DHT22;1174;51.588;7.328;2022-07-29T06:46:26;19.00;99.90
2327;DHT22;1174;51.588;7.328;2022-07-29T06:48:54;19.20;99.90
2327;DHT22;1174;51.588;7.328;2022-07-29T06:51:22;19.30;99.90
2327;DHT22;1174;51.588;7.328;2022-07-29T06:53:51;19.40;99.90
2327;DHT22;1174;51.588;7.328;2022-07-29T06:56:18;19.60;99.90
2327;DHT22;1174;51.588;7.328;2022-07-29T06:58:45;19.70;99.90
2327;DHT22;1174;51.588;7.328;2022-07-29T07:01:12;19.60;99.90
2327;DHT22;1174;51.588;7.328;2022-07-29T07:03:41;19.70;99.90
2327;DHT22;1174;51.588;7.328;2022-07-29T07:06:09;19.90;99.90
2327;DHT22;1174;51.588;7.328;2022-07-29T07:08:36;20.00;99.90
2327;DHT22;1174;51.588;7.328;2022-07-29T07:11:03;19.80;99.90
2327;DHT22;1174;51.588;7.328;2022-07-29T07:13:31;19.80;99.90
2327;DHT22;1174;51.588;7.328;2022-07-29T07:16:00;19.80;99.90
2327;DHT22;1174;51.588;7.328;2022-07-29T07:18:27;19.80;99.90
2327;DHT22;1174;51.588;7.328;2022-07-29T07:20:54;20.00;99.90
2327;DHT22;1174;51.588;7.328;2022-07-29T07:23:22;20.00;99.90
2327;DHT22;1174;51.588;7.328;2022-07-29T07:25:50;20.10;99.90
2327;DHT22;1174;51.588;7.328;2022-07-29T07:28:17;20.50;99.90
2327;DHT22;1174;51.588;7.328;2022-07-29T07:30:45;21.00;99.90
2327;DHT22;1174;51.588;7.328;2022-07-29T07:33:12;21.10;99.90
2327;DHT22;1174;51.588;7.328;2022-07-29T07:35:39;20.80;99.90
2327;DHT22;1174;51.588;7.328;2022-07-29T07:38:06;20.90;99.90
2327;DHT22;1174;51.588;7.328;2022-07-29T07:40:35;20.90;99.90
2327;DHT22;1174;51.588;7.328;2022-07-29T07:43:02;21.10;99.90
2327;DHT22;1174;51.588;7.328;2022-07-29T07:45:29;21.00;99.90
2327;DHT22;1174;51.588;7.328;2022-07-29T07:47:57;21.00;99.90
2327;DHT22;1174;51.588;7.328;2022-07-29T07:50:25;21.20;99.90
2327;DHT22;1174;51.588;7.328;2022-07-29T07:52:53;21.20;99.90
2327;DHT22;1174;51.588;7.328;2022-07-29T07:55:23;21.00;99.90
2327;DHT22;1174;51.588;7.328;2022-07-29T07:57:52;21.00;99.90
2327;DHT22;1174;51.588;7.328;2022-07-29T08:00:19;21.20;99.90
2327;DHT22;1174;51.588;7.328;2022-07-29T08:02:46;21.50;99.90
2327;DHT22;1174;51.588;7.328;2022-07-29T08:05:13;21.70;99.90
2327;DHT22;1174;51.588;7.328;2022-07-29T08:07:43;21.80;99.90
2327;DHT22;1174;51.588;7.328;2022-07-29T08:10:10;21.60;99.90
2327;DHT22;1174;51.588;7.328;2022-07-29T08:12:37;21.90;99.90
2327;DHT22;1174;51.588;7.328;2022-07-29T08:15:07;21.90;99.90
2327;DHT22;1174;51.588;7.328;2022-07-29T08:17:34;22.00;99.90
2327;DHT22;1174;51.588;7.328;2022-07-29T08:20:01;22.00;99.90
2327;DHT22;1174;51.588;7.328;2022-07-29T08:22:28;22.10;99.90
2327;DHT22;1174;51.588;7.328;2022-07-29T08:24:54;22.40;99.90
2327;DHT22;1174;51.588;7.328;2022-07-29T08:27:22;22.60;99.90
2327;DHT22;1174;51.588;7.328;2022-07-29T08:29:49;22.80;99.90
2327;DHT22;1174;51.588;7.328;2022-07-29T08:32:17;22.50;99.90
2327;DHT22;1174;51.588;7.328;2022-07-29T08:34:44;22.50;99.90
2327;DHT22;1174;51.588;7.328;2022-07-29T08:37:11;22.40;99.90
2327;DHT22;1174;51.588;7.328;2022-07-29T08:39:38;22.50;99.90
2327;DHT22;1174;51.588;7.328;2022-07-29T08:42:06;22.00;99.90
2327;DHT22;1174;51.588;7.328;2022-07-29T08:44:33;21.60;99.90
2327;DHT22;1174;51.588;7.328;2022-07-29T08:47:01;21.50;99.90
2327;DHT22;1174;51.588;7.328;2022-07-29T08:49:30;21.60;99.90
2327;DHT22;1174;51.588;7.328;2022-07-29T08:51:57;22.00;99.90
2327;DHT22;1174;51.588;7.328;2022-07-29T08:54:25;21.90;99.90
2327;DHT22;1174;51.588;7.328;2022-07-29T08:56:52;21.80;99.90
2327;DHT22;1174;51.588;7.328;2022-07-29T08:59:20;21.70;99.90
2327;DHT22;1174;51.588;7.328;2022-07-29T09:01:52;21.80;99.90
2327;DHT22;1174;51.588;7.328;2022-07-29T09:04:20;21.50;99.90
2327;DHT22;1174;51.588;7.328;2022-07-29T09:06:51;21.70;99.90
2327;DHT22;1174;51.588;7.328;2022-07-29T09:09:19;21.70;99.90
2327;DHT22;1174;51.588;7.328;2022-07-29T09:11:46;21.80;99.90
2327;DHT22;1174;51.588;7.328;2022-07-29T09:14:13;21.70;99.90
2327;DHT22;1174;51.588;7.328;2022-07-29T09:16:47;21.70;99.90
2327;DHT22;1174;51.588;7.328;2022-07-29T09:19:23;21.70;99.90
2327;DHT22;1174;51.588;7.328;2022-07-29T09:21:52;21.50;99.90
2327;DHT22;1174;51.588;7.328;2022-07-29T09:24:29;21.70;99.90
2327;DHT22;1174;51.588;7.328;2022-07-29T09:27:02;21.50;99.90
2327;DHT22;1174;51.588;7.328;2022-07-29T09:29:29;21.30;99.90
2327;DHT22;1174;51.588;7.328;2022-07-29T09:31:57;21.20;99.90
2327;DHT22;1174;51.588;7.328;2022-07-29T09:34:25;21.20;99.90
2327;DHT22;1174;51.588;7.328;2022-07-29T09:36:54;21.10;99.90
2327;DHT22;1174;51.588;7.328;2022-07-29T09:39:28;21.10;99.90
2327;DHT22;1174;51.588;7.328;2022-07-29T09:41:57;20.80;99.90
2327;DHT22;1174;51.588;7.328;2022-07-29T09:44:25;20.80;99.90
2327;DHT22;1174;51.588;7.328;2022-07-29T09:46:56;20.90;99.90
2327;DHT22;1174;51.588;7.328;2022-07-29T09:49:24;20.70;99.90
2327;DHT22;1174;51.588;7.328;2022-07-29T09:52:04;20.80;99.90
2327;DHT22;1174;51.588;7.328;2022-07-29T09:54:31;20.90;99.90
2327;DHT22;1174;51.588;7.328;2022-07-29T09:57:02;21.00;99.90
2327;DHT22;1174;51.588;7.328;2022-07-29T09:59:30;20.90;99.90
2327;DHT22;1174;51.588;7.328;2022-07-29T10:01:57;20.90;99.90
2327;DHT22;1174;51.588;7.328;2022-07-29T10:04:23;21.00;99.90
2327;DHT22;1174;51.588;7.328;2022-07-29T10:06:57;20.70;99.90
2327;DHT22;1174;51.588;7.328;2022-07-29T10:09:26;20.60;99.90
2327;DHT22;1174;51.588;7.328;2022-07-29T10:12:03;20.50;99.90
2327;DHT22;1174;51.588;7.328;2022-07-29T10:14:31;20.60;99.90
2327;DHT22;1174;51.588;7.328;2022-07-29T10:16:59;20.60;99.90
2327;DHT22;1174;51.588;7.328;2022-07-29T10:19:28;20.50;99.90
2327;DHT22;1174;51.588;7.328;2022-07-29T10:21:56;20.40;99.90
2327;DHT22;1174;51.588;7.328;2022-07-29T10:24:25;20.40;99.90
2327;DHT22;1174;51.588;7.328;2022-07-29T10:26:54;20.40;99.90
2327;DHT22;1174;51.588;7.328;2022-07-29T10:29:21;20.30;99.90
2327;DHT22;1174;51.588;7.328;2022-07-29T10:31:53;20.20;99.90
2327;DHT22;1174;51.588;7.328;2022-07-29T10:34:33;20.10;99.90
2327;DHT22;1174;51.588;7.328;2022-07-29T10:37:06;20.10;99.90
2327;DHT22;1174;51.588;7.328;2022-07-29T10:39:45;20.10;99.90
2327;DHT22;1174;51.588;7.328;2022-07-29T10:42:18;20.20;99.90
2327;DHT22;1174;51.588;7.328;2022-07-29T10:44:46;20.20;99.90
2327;DHT22;1174;51.588;7.328;2022-07-29T10:47:20;20.20;99.90
2327;DHT22;1174;51.588;7.328;2022-07-29T10:49:58;20.20;99.90
2327;DHT22;1174;51.588;7.328;2022-07-29T10:52:25;20.30;99.90
2327;DHT22;1174;51.588;7.328;2022-07-29T10:55:33;20.30;99.90
2327;DHT22;1174;51.588;7.328;2022-07-29T10:58:15;20.40;99.90
2327;DHT22;1174;51.588;7.328;2022-07-29T11:00:42;20.50;99.90
2327;DHT22;1174;51.588;7.328;2022-07-29T11:03:10;20.40;99.90
2327;DHT22;1174;51.588;7.328;2022-07-29T11:05:56;20.40;99.90
2327;DHT22;1174;51.588;7.328;2022-07-29T11:08:24;20.20;99.90
2327;DHT22;1174;51.588;7.328;2022-07-29T11:14:04;20.10;99.90
2327;DHT22;1174;51.588;7.328;2022-07-29T11:17:02;20.20;99.90
2327;DHT22;1174;51.588;7.328;2022-07-29T11:19:30;20.30;99.90
2327;DHT22;1174;51.588;7.328;2022-07-29T11:21:57;20.30;99.90
2327;DHT22;1174;51.588;7.328;2022-07-29T11:24:25;20.20;99.90
2327;DHT22;1174;51.588;7.328;2022-07-29T11:27:12;20.40;99.90
2327;DHT22;1174;51.588;7.328;2022-07-29T11:29:48;20.60;99.90
2327;DHT22;1174;51.588;7.328;2022-07-29T11:32:16;20.70;99.90
2327;DHT22;1174;51.588;7.328;2022-07-29T11:34:47;20.70;99.90
2327;DHT22;1174;51.588;7.328;2022-07-29T11:37:21;20.50;99.90
2327;DHT22;1174;51.588;7.328;2022-07-29T11:42:52;20.40;99.90
2327;DHT22;1174;51.588;7.328;2022-07-29T11:45:24;20.50;99.90
2327;DHT22;1174;51.588;7.328;2022-07-29T11:47:58;20.40;99.90
2327;DHT22;1174;51.588;7.328;2022-07-29T11:50:34;20.50;99.90
2327;DHT22;1174;51.588;7.328;2022-07-29T11:53:03;20.10;99.90
2327;DHT22;1174;51.588;7.328;2022-07-29T11:55:30;20.00;99.90
2327;DHT22;1174;51.588;7.328;2022-07-29T11:58:02;20.00;99.90
2327;DHT22;1174;51.588;7.328;2022-07-29T12:00:31;20.20;99.90
2327;DHT22;1174;51.588;7.328;2022-07-29T12:02:59;20.10;99.90
2327;DHT22;1174;51.588;7.328;2022-07-29T12:05:38;20.20;99.90
2327;DHT22;1174;51.588;7.328;2022-07-29T12:08:11;20.50;99.90
2327;DHT22;1174;51.588;7.328;2022-07-29T12:10:39;20.40;99.90
2327;DHT22;1174;51.588;7.328;2022-07-29T12:13:08;20.50;99.90
2327;DHT22;1174;51.588;7.328;2022-07-29T12:15:35;20.90;99.90
2327;DHT22;1174;51.588;7.328;2022-07-29T12:18:13;21.20;99.90
2327;DHT22;1174;51.588;7.328;2022-07-29T12:20:40;21.50;99.90
2327;DHT22;1174;51.588;7.328;2022-07-29T12:23:08;21.40;99.90
2327;DHT22;1174;51.588;7.328;2022-07-29T12:25:37;21.30;99.90
2327;DHT22;1174;51.588;7.328;2022-07-29T12:28:09;21.30;99.90
2327;DHT22;1174;51.588;7.328;2022-07-29T12:30:40;21.50;99.90
2327;DHT22;1174;51.588;7.328;2022-07-29T12:33:11;21.70;99.90
2327;DHT22;1174;51.588;7.328;2022-07-29T12:35:39;21.60;99.90
2327;DHT22;1174;51.588;7.328;2022-07-29T12:38:06;21.60;99.90
2327;DHT22;1174;51.588;7.328;2022-07-29T12:40:33;21.50;99.90
2327;DHT22;1174;51.588;7.328;2022-07-29T12:43:13;21.80;99.90
2327;DHT22;1174;51.588;7.328;2022-07-29T12:45:41;21.90;99.90
2327;DHT22;1174;51.588;7.328;2022-07-29T12:48:09;22.10;99.90
2327;DHT22;1174;51.588;7.328;2022-07-29T12:50:36;22.20;99.90
2327;DHT22;1174;51.588;7.328;2022-07-29T12:53:11;22.30;99.90
2327;DHT22;1174;51.588;7.328;2022-07-29T12:55:40;22.30;99.90
2327;DHT22;1174;51.588;7.328;2022-07-29T12:58:08;22.30;99.90
2327;DHT22;1174;51.588;7.328;2022-07-29T13:00:36;22.20;99.90
2327;DHT22;1174;51.588;7.328;2022-07-29T13:03:03;22.00;99.90
2327;DHT22;1174;51.588;7.328;2022-07-29T13:05:40;22.20;99.90
2327;DHT22;1174;51.588;7.328;2022-07-29T13:08:14;22.60;99.90
2327;DHT22;1174;51.588;7.328;2022-07-29T13:10:42;23.20;99.90
2327;DHT22;1174;51.588;7.328;2022-07-29T13:13:10;23.70;99.90
2327;DHT22;1174;51.588;7.328;2022-07-29T13:15:40;24.40;99.90
2327;DHT22;1174;51.588;7.328;2022-07-29T13:18:26;25.00;99.90
2327;DHT22;1174;51.588;7.328;2022-07-29T13:20:53;25.60;99.90
2327;DHT22;1174;51.588;7.328;2022-07-29T13:23:20;26.00;99.90
2327;DHT22;1174;51.588;7.328;2022-07-29T13:25:47;26.60;99.90
2327;DHT22;1174;51.588;7.328;2022-07-29T13:28:14;26.80;99.90
2327;DHT22;1174;51.588;7.328;2022-07-29T13:30:43;26.70;99.90
2327;DHT22;1174;51.588;7.328;2022-07-29T13:33:10;27.00;99.90
2327;DHT22;1174;51.588;7.328;2022-07-29T13:35:37;27.40;99.90
2327;DHT22;1174;51.588;7.328;2022-07-29T13:38:04;27.40;99.90
2327;DHT22;1174;51.588;7.328;2022-07-29T13:40:31;27.30;99.90
2327;DHT22;1174;51.588;7.328;2022-07-29T13:42:59;27.10;99.90
2327;DHT22;1174;51.588;7.328;2022-07-29T13:45:26;27.00;99.90
2327;DHT22;1174;51.588;7.328;2022-07-29T13:47:54;26.90;99.90
2327;DHT22;1174;51.588;7.328;2022-07-29T13:50:21;26.30;99.90
2327;DHT22;1174;51.588;7.328;2022-07-29T13:52:47;26.00;99.90
2327;DHT22;1174;51.588;7.328;2022-07-29T13:55:16;25.90;99.90
2327;DHT22;1174;51.588;7.328;2022-07-29T13:57:42;25.90;99.90
2327;DHT22;1174;51.588;7.328;2022-07-29T14:00:10;25.90;99.90
2327;DHT22;1174;51.588;7.328;2022-07-29T14:02:37;26.40;99.90
2327;DHT22;1174;51.588;7.328;2022-07-29T14:05:06;27.00;99.90
2327;DHT22;1174;51.588;7.328;2022-07-29T14:07:35;27.20;99.90
2327;DHT22;1174;51.588;7.328;2022-07-29T14:10:03;27.10;99.90
2327;DHT22;1174;51.588;7.328;2022-07-29T14:12:30;27.10;99.90
2327;DHT22;1174;51.588;7.328;2022-07-29T14:14:57;26.80;99.90
2327;DHT22;1174;51.588;7.328;2022-07-29T14:17:23;26.60;99.90
2327;DHT22;1174;51.588;7.328;2022-07-29T14:19:50;26.20;99.90
2327;DHT22;1174;51.588;7.328;2022-07-29T14:22:18;26.10;99.90
2327;DHT22;1174;51.588;7.328;2022-07-29T14:24:45;25.90;99.90
2327;DHT22;1174;51.588;7.328;2022-07-29T14:27:12;25.70;99.90
2327;DHT22;1174;51.588;7.328;2022-07-29T14:29:39;26.00;99.90
2327;DHT22;1174;51.588;7.328;2022-07-29T14:32:06;26.20;99.90
2327;DHT22;1174;51.588;7.328;2022-07-29T14:34:33;26.60;99.90
2327;DHT22;1174;51.588;7.328;2022-07-29T14:37:00;26.60;99.90
2327;DHT22;1174;51.588;7.328;2022-07-29T14:39:29;26.70;99.90
2327;DHT22;1174;51.588;7.328;2022-07-29T14:41:56;26.50;99.90
2327;DHT22;1174;51.588;7.328;2022-07-29T14:44:23;26.50;99.90
2327;DHT22;1174;51.588;7.328;2022-07-29T14:46:55;26.60;99.90
2327;DHT22;1174;51.588;7.328;2022-07-29T14:49:23;26.70;99.90
2327;DHT22;1174;51.588;7.328;2022-07-29T14:51:50;26.80;99.90
2327;DHT22;1174;51.588;7.328;2022-07-29T14:54:17;26.90;99.90
2327;DHT22;1174;51.588;7.328;2022-07-29T14:56:45;27.10;99.90
2327;DHT22;1174;51.588;7.328;2022-07-29T14:59:14;27.10;99.90
2327;DHT22;1174;51.588;7.328;2022-07-29T15:01:41;27.10;99.90
2327;DHT22;1174;51.588;7.328;2022-07-29T15:04:08;26.60;99.90
2327;DHT22;1174;51.588;7.328;2022-07-29T15:06:35;26.60;99.90
2327;DHT22;1174;51.588;7.328;2022-07-29T15:09:03;26.50;99.90
2327;DHT22;1174;51.588;7.328;2022-07-29T15:11:30;26.70;99.90
2327;DHT22;1174;51.588;7.328;2022-07-29T15:13:58;26.70;99.90
2327;DHT22;1174;51.588;7.328;2022-07-29T15:16:25;26.60;99.90
2327;DHT22;1174;51.588;7.328;2022-07-29T15:18:52;26.80;99.90
2327;DHT22;1174;51.588;7.328;2022-07-29T15:21:19;26.70;99.90
2327;DHT22;1174;51.588;7.328;2022-07-29T15:23:45;26.80;99.90
2327;DHT22;1174;51.588;7.328;2022-07-29T15:26:12;26.80;99.90
2327;DHT22;1174;51.588;7.328;2022-07-29T15:28:39;26.90;99.90
2327;DHT22;1174;51.588;7.328;2022-07-29T15:31:08;26.70;99.90
2327;DHT22;1174;51.588;7.328;2022-07-29T15:33:35;26.60;99.90
2327;DHT22;1174;51.588;7.328;2022-07-29T15:36:02;26.60;99.90
2327;DHT22;1174;51.588;7.328;2022-07-29T15:38:30;26.70;99.90
2327;DHT22;1174;51.588;7.328;2022-07-29T15:40:56;26.50;99.90
2327;DHT22;1174;51.588;7.328;2022-07-29T15:43:23;26.70;99.90
2327;DHT22;1174;51.588;7.328;2022-07-29T15:45:50;26.50;99.90
2327;DHT22;1174;51.588;7.328;2022-07-29T15:48:32;26.10;99.90
2327;DHT22;1174;51.588;7.328;2022-07-29T15:50:59;26.20;99.90
2327;DHT22;1174;51.588;7.328;2022-07-29T15:53:26;26.20;99.90
2327;DHT22;1174;51.588;7.328;2022-07-29T15:55:56;26.10;99.90
2327;DHT22;1174;51.588;7.328;2022-07-29T15:58:25;26.00;99.90
2327;DHT22;1174;51.588;7.328;2022-07-29T16:00:52;26.20;99.90
2327;DHT22;1174;51.588;7.328;2022-07-29T16:03:19;26.30;99.90
2327;DHT22;1174;51.588;7.328;2022-07-29T16:05:48;26.40;99.90
2327;DHT22;1174;51.588;7.328;2022-07-29T16:08:15;26.20;99.90
2327;DHT22;1174;51.588;7.328;2022-07-29T16:10:42;26.10;99.90
2327;DHT22;1174;51.588;7.328;2022-07-29T16:13:09;26.40;99.90
2327;DHT22;1174;51.588;7.328;2022-07-29T16:15:36;26.40;99.90
2327;DHT22;1174;51.588;7.328;2022-07-29T16:18:03;26.40;99.90
2327;DHT22;1174;51.588;7.328;2022-07-29T16:20:30;26.40;99.90